sensor_id;sensor_type;location;lat;lon;timestamp;P1;durP1;ratioP1;P2;durP2;ratioP2
20655;SDS011;10487;53.320;8.672;2023-07-02T00:00:39;0.08;;;0.00;;
20655;SDS011;10487;53.320;8.672;2023-07-02T00:03:41;0.15;;;0.10;;
20655;SDS011;10487;53.320;8.672;2023-07-02T00:06:43;0.00;;;0.00;;
20655;SDS011;10487;53.320;8.672;2023-07-02T00:09:44;0.10;;;0.08;;
20655;SDS011;10487;53.320;8.672;2023-07-02T00:12:46;0.15;;;0.10;;
20655;SDS011;10487;53.320;8.672;2023-07-02T00:15:48;0.10;;;0.10;;
20655;SDS011;10487;53.320;8.672;2023-07-02T00:18:50;0.10;;;0.10;;
20655;SDS011;10487;53.320;8.672;2023-07-02T00:21:53;0.20;;;0.10;;
20655;SDS011;10487;53.320;8.672;2023-07-02T00:24:56;0.10;;;0.10;;
20655;SDS011;10487;53.320;8.672;2023-07-02T00:27:58;0.10;;;0.10;;
20655;SDS011;10487;53.320;8.672;2023-07-02T00:30:59;0.10;;;0.10;;
20655;SDS011;10487;53.320;8.672;2023-07-02T00:34:02;0.10;;;0.10;;
20655;SDS011;10487;53.320;8.672;2023-07-02T00:37:05;0.10;;;0.10;;
20655;SDS011;10487;53.320;8.672;2023-07-02T00:40:07;0.10;;;0.10;;
20655;SDS011;10487;53.320;8.672;2023-07-02T00:43:09;0.10;;;0.10;;
20655;SDS011;10487;53.320;8.672;2023-07-02T00:46:14;0.05;;;0.05;;
20655;SDS011;10487;53.320;8.672;2023-07-02T00:49:23;0.10;;;0.10;;
20655;SDS011;10487;53.320;8.672;2023-07-02T00:52:25;0.10;;;0.10;;
20655;SDS011;10487;53.320;8.672;2023-07-02T00:55:27;0.10;;;0.10;;
20655;SDS011;10487;53.320;8.672;2023-07-02T00:58:28;0.10;;;0.10;;
20655;SDS011;10487;53.320;8.672;2023-07-02T01:01:31;0.00;;;0.00;;
20655;SDS011;10487;53.320;8.672;2023-07-02T01:04:34;0.10;;;0.10;;
20655;SDS011;10487;53.320;8.672;2023-07-02T01:07:36;0.00;;;0.00;;
20655;SDS011;10487;53.320;8.672;2023-07-02T01:10:38;0.10;;;0.10;;
20655;SDS011;10487;53.320;8.672;2023-07-02T01:13:39;0.10;;;0.10;;
20655;SDS011;10487;53.320;8.672;2023-07-02T01:16:42;0.22;;;0.10;;
20655;SDS011;10487;53.320;8.672;2023-07-02T01:19:46;0.10;;;0.10;;
20655;SDS011;10487;53.320;8.672;2023-07-02T01:22:53;0.10;;;0.10;;
20655;SDS011;10487;53.320;8.672;2023-07-02T01:25:54;0.10;;;0.10;;
20655;SDS011;10487;53.320;8.672;2023-07-02T01:29:00;0.10;;;0.10;;
20655;SDS011;10487;53.320;8.672;2023-07-02T01:32:14;0.10;;;0.10;;
20655;SDS011;10487;53.320;8.672;2023-07-02T01:35:16;0.10;;;0.10;;
20655;SDS011;10487;53.320;8.672;2023-07-02T01:38:17;0.10;;;0.10;;
20655;SDS011;10487;53.320;8.672;2023-07-02T01:41:19;0.32;;;0.10;;
20655;SDS011;10487;53.320;8.672;2023-07-02T01:44:21;0.10;;;0.10;;
20655;SDS011;10487;53.320;8.672;2023-07-02T01:47:23;0.10;;;0.10;;
20655;SDS011;10487;53.320;8.672;2023-07-02T01:50:25;0.10;;;0.10;;
20655;SDS011;10487;53.320;8.672;2023-07-02T01:53:27;0.30;;;0.10;;
20655;SDS011;10487;53.320;8.672;2023-07-02T01:56:28;0.10;;;0.10;;
20655;SDS011;10487;53.320;8.672;2023-07-02T01:59:30;0.20;;;0.20;;
20655;SDS011;10487;53.320;8.672;2023-07-02T02:02:31;0.10;;;0.10;;
20655;SDS011;10487;53.320;8.672;2023-07-02T02:05:33;0.10;;;0.10;;
20655;SDS011;10487;53.320;8.672;2023-07-02T02:08:36;0.10;;;0.10;;
20655;SDS011;10487;53.320;8.672;2023-07-02T02:11:39;0.10;;;0.10;;
20655;SDS011;10487;53.320;8.672;2023-07-02T02:14:42;0.13;;;0.13;;
20655;SDS011;10487;53.320;8.672;2023-07-02T02:17:44;0.10;;;0.10;;
20655;SDS011;10487;53.320;8.672;2023-07-02T02:20:46;0.52;;;0.10;;
20655;SDS011;10487;53.320;8.672;2023-07-02T02:23:49;0.10;;;0.10;;
20655;SDS011;10487;53.320;8.672;2023-07-02T02:26:50;0.20;;;0.20;;
20655;SDS011;10487;53.320;8.672;2023-07-02T02:29:52;0.10;;;0.10;;
20655;SDS011;10487;53.320;8.672;2023-07-02T02:32:53;0.10;;;0.10;;
20655;SDS011;10487;53.320;8.672;2023-07-02T02:35:55;0.32;;;0.10;;
20655;SDS011;10487;53.320;8.672;2023-07-02T02:38:57;0.20;;;0.10;;
20655;SDS011;10487;53.320;8.672;2023-07-02T02:41:59;0.10;;;0.10;;
20655;SDS011;10487;53.320;8.672;2023-07-02T02:45:00;0.10;;;0.10;;
20655;SDS011;10487;53.320;8.672;2023-07-02T02:48:02;0.20;;;0.20;;
20655;SDS011;10487;53.320;8.672;2023-07-02T02:51:04;0.10;;;0.10;;
20655;SDS011;10487;53.320;8.672;2023-07-02T02:54:05;0.15;;;0.10;;
20655;SDS011;10487;53.320;8.672;2023-07-02T02:57:07;0.20;;;0.10;;
20655;SDS011;10487;53.320;8.672;2023-07-02T03:00:09;0.10;;;0.10;;
20655;SDS011;10487;53.320;8.672;2023-07-02T03:03:12;0.17;;;0.10;;
20655;SDS011;10487;53.320;8.672;2023-07-02T03:06:14;0.10;;;0.10;;
20655;SDS011;10487;53.320;8.672;2023-07-02T03:09:17;0.50;;;0.20;;
20655;SDS011;10487;53.320;8.672;2023-07-02T03:12:19;0.17;;;0.17;;
20655;SDS011;10487;53.320;8.672;2023-07-02T03:15:20;0.30;;;0.20;;
20655;SDS011;10487;53.320;8.672;2023-07-02T03:18:22;0.13;;;0.13;;
20655;SDS011;10487;53.320;8.672;2023-07-02T03:21:24;0.20;;;0.10;;
20655;SDS011;10487;53.320;8.672;2023-07-02T03:24:25;0.10;;;0.10;;
20655;SDS011;10487;53.320;8.672;2023-07-02T03:27:27;0.10;;;0.10;;
20655;SDS011;10487;53.320;8.672;2023-07-02T03:30:29;0.10;;;0.10;;
20655;SDS011;10487;53.320;8.672;2023-07-02T03:33:32;0.20;;;0.20;;
20655;SDS011;10487;53.320;8.672;2023-07-02T03:36:33;0.20;;;0.20;;
20655;SDS011;10487;53.320;8.672;2023-07-02T03:39:35;0.20;;;0.20;;
20655;SDS011;10487;53.320;8.672;2023-07-02T03:42:37;0.10;;;0.10;;
20655;SDS011;10487;53.320;8.672;2023-07-02T03:45:38;0.20;;;0.20;;
20655;SDS011;10487;53.320;8.672;2023-07-02T03:48:40;0.20;;;0.20;;
20655;SDS011;10487;53.320;8.672;2023-07-02T03:51:42;0.22;;;0.20;;
20655;SDS011;10487;53.320;8.672;2023-07-02T03:54:44;0.20;;;0.20;;
20655;SDS011;10487;53.320;8.672;2023-07-02T03:57:45;0.38;;;0.15;;
20655;SDS011;10487;53.320;8.672;2023-07-02T04:00:47;0.20;;;0.20;;
20655;SDS011;10487;53.320;8.672;2023-07-02T04:03:51;0.17;;;0.17;;
20655;SDS011;10487;53.320;8.672;2023-07-02T04:06:54;0.38;;;0.20;;
20655;SDS011;10487;53.320;8.672;2023-07-02T04:09:56;0.30;;;0.20;;
20655;SDS011;10487;53.320;8.672;2023-07-02T04:12:57;0.20;;;0.17;;
20655;SDS011;10487;53.320;8.672;2023-07-02T04:15:59;0.32;;;0.20;;
20655;SDS011;10487;53.320;8.672;2023-07-02T04:19:00;0.15;;;0.10;;
20655;SDS011;10487;53.320;8.672;2023-07-02T04:22:02;0.22;;;0.22;;
20655;SDS011;10487;53.320;8.672;2023-07-02T04:25:04;0.60;;;0.20;;
20655;SDS011;10487;53.320;8.672;2023-07-02T04:28:26;0.13;;;0.13;;
20655;SDS011;10487;53.320;8.672;2023-07-02T04:31:28;0.30;;;0.30;;
20655;SDS011;10487;53.320;8.672;2023-07-02T04:34:29;0.10;;;0.10;;
20655;SDS011;10487;53.320;8.672;2023-07-02T04:37:31;0.20;;;0.20;;
20655;SDS011;10487;53.320;8.672;2023-07-02T04:40:33;3.05;;;0.30;;
20655;SDS011;10487;53.320;8.672;2023-07-02T04:43:34;0.10;;;0.10;;
20655;SDS011;10487;53.320;8.672;2023-07-02T04:46:36;0.20;;;0.20;;
20655;SDS011;10487;53.320;8.672;2023-07-02T04:49:38;0.40;;;0.22;;
20655;SDS011;10487;53.320;8.672;2023-07-02T04:52:40;0.10;;;0.10;;
20655;SDS011;10487;53.320;8.672;2023-07-02T04:55:42;0.13;;;0.10;;
20655;SDS011;10487;53.320;8.672;2023-07-02T04:58:44;0.50;;;0.20;;
20655;SDS011;10487;53.320;8.672;2023-07-02T05:01:46;0.20;;;0.20;;
20655;SDS011;10487;53.320;8.672;2023-07-02T05:04:48;0.20;;;0.20;;
20655;SDS011;10487;53.320;8.672;2023-07-02T05:07:49;0.57;;;0.20;;
20655;SDS011;10487;53.320;8.672;2023-07-02T05:10:51;0.22;;;0.20;;
20655;SDS011;10487;53.320;8.672;2023-07-02T05:13:53;0.20;;;0.20;;
20655;SDS011;10487;53.320;8.672;2023-07-02T05:16:54;0.20;;;0.20;;
20655;SDS011;10487;53.320;8.672;2023-07-02T05:19:56;0.28;;;0.20;;
20655;SDS011;10487;53.320;8.672;2023-07-02T05:22:58;0.32;;;0.30;;
20655;SDS011;10487;53.320;8.672;2023-07-02T05:25:59;0.30;;;0.30;;
20655;SDS011;10487;53.320;8.672;2023-07-02T05:29:01;1.02;;;0.50;;
20655;SDS011;10487;53.320;8.672;2023-07-02T05:32:03;0.30;;;0.30;;
20655;SDS011;10487;53.320;8.672;2023-07-02T05:35:07;0.57;;;0.30;;
20655;SDS011;10487;53.320;8.672;2023-07-02T05:38:09;0.20;;;0.20;;
20655;SDS011;10487;53.320;8.672;2023-07-02T05:41:10;0.20;;;0.20;;
20655;SDS011;10487;53.320;8.672;2023-07-02T05:44:12;0.40;;;0.30;;
20655;SDS011;10487;53.320;8.672;2023-07-02T05:47:13;0.30;;;0.25;;
20655;SDS011;10487;53.320;8.672;2023-07-02T05:50:15;0.30;;;0.20;;
20655;SDS011;10487;53.320;8.672;2023-07-02T05:53:17;0.22;;;0.20;;
20655;SDS011;10487;53.320;8.672;2023-07-02T05:56:18;0.28;;;0.20;;
20655;SDS011;10487;53.320;8.672;2023-07-02T05:59:20;0.77;;;0.30;;
20655;SDS011;10487;53.320;8.672;2023-07-02T06:02:22;0.55;;;0.30;;
20655;SDS011;10487;53.320;8.672;2023-07-02T06:05:24;0.75;;;0.30;;
20655;SDS011;10487;53.320;8.672;2023-07-02T06:08:25;0.28;;;0.20;;
20655;SDS011;10487;53.320;8.672;2023-07-02T06:11:27;0.20;;;0.20;;
20655;SDS011;10487;53.320;8.672;2023-07-02T06:14:29;0.45;;;0.40;;
20655;SDS011;10487;53.320;8.672;2023-07-02T06:17:31;0.20;;;0.20;;
20655;SDS011;10487;53.320;8.672;2023-07-02T06:20:36;0.32;;;0.20;;
20655;SDS011;10487;53.320;8.672;2023-07-02T06:23:44;0.77;;;0.20;;
20655;SDS011;10487;53.320;8.672;2023-07-02T06:26:45;0.30;;;0.30;;
20655;SDS011;10487;53.320;8.672;2023-07-02T06:29:47;0.40;;;0.40;;
20655;SDS011;10487;53.320;8.672;2023-07-02T06:32:49;0.32;;;0.30;;
20655;SDS011;10487;53.320;8.672;2023-07-02T06:35:51;1.13;;;0.40;;
20655;SDS011;10487;53.320;8.672;2023-07-02T06:38:52;0.85;;;0.40;;
20655;SDS011;10487;53.320;8.672;2023-07-02T06:41:54;0.40;;;0.30;;
20655;SDS011;10487;53.320;8.672;2023-07-02T06:44:55;0.43;;;0.30;;
20655;SDS011;10487;53.320;8.672;2023-07-02T06:47:57;0.15;;;0.15;;
20655;SDS011;10487;53.320;8.672;2023-07-02T06:50:59;0.60;;;0.30;;
20655;SDS011;10487;53.320;8.672;2023-07-02T06:54:01;0.35;;;0.20;;
20655;SDS011;10487;53.320;8.672;2023-07-02T06:57:02;0.95;;;0.30;;
20655;SDS011;10487;53.320;8.672;2023-07-02T07:00:04;0.47;;;0.30;;
20655;SDS011;10487;53.320;8.672;2023-07-02T07:03:07;0.38;;;0.30;;
20655;SDS011;10487;53.320;8.672;2023-07-02T07:06:09;0.30;;;0.30;;
20655;SDS011;10487;53.320;8.672;2023-07-02T07:09:10;0.60;;;0.40;;
20655;SDS011;10487;53.320;8.672;2023-07-02T07:12:12;0.22;;;0.20;;
20655;SDS011;10487;53.320;8.672;2023-07-02T07:15:14;0.20;;;0.20;;
20655;SDS011;10487;53.320;8.672;2023-07-02T07:18:15;0.40;;;0.38;;
20655;SDS011;10487;53.320;8.672;2023-07-02T07:21:20;0.40;;;0.30;;
20655;SDS011;10487;53.320;8.672;2023-07-02T07:24:21;0.77;;;0.30;;
20655;SDS011;10487;53.320;8.672;2023-07-02T07:27:23;0.50;;;0.30;;
20655;SDS011;10487;53.320;8.672;2023-07-02T07:30:25;0.22;;;0.22;;
20655;SDS011;10487;53.320;8.672;2023-07-02T07:33:26;0.22;;;0.20;;
20655;SDS011;10487;53.320;8.672;2023-07-02T07:36:28;0.20;;;0.20;;
20655;SDS011;10487;53.320;8.672;2023-07-02T07:39:30;0.30;;;0.22;;
20655;SDS011;10487;53.320;8.672;2023-07-02T07:42:31;0.90;;;0.30;;
20655;SDS011;10487;53.320;8.672;2023-07-02T07:45:33;0.28;;;0.28;;
20655;SDS011;10487;53.320;8.672;2023-07-02T07:48:35;0.30;;;0.20;;
20655;SDS011;10487;53.320;8.672;2023-07-02T07:51:37;0.50;;;0.30;;
20655;SDS011;10487;53.320;8.672;2023-07-02T07:54:39;0.40;;;0.30;;
20655;SDS011;10487;53.320;8.672;2023-07-02T07:57:41;0.50;;;0.30;;
20655;SDS011;10487;53.320;8.672;2023-07-02T08:00:43;0.63;;;0.47;;
20655;SDS011;10487;53.320;8.672;2023-07-02T08:03:44;0.47;;;0.40;;
20655;SDS011;10487;53.320;8.672;2023-07-02T08:06:46;0.50;;;0.38;;
20655;SDS011;10487;53.320;8.672;2023-07-02T08:09:48;1.25;;;0.60;;
20655;SDS011;10487;53.320;8.672;2023-07-02T08:12:49;1.40;;;0.60;;
20655;SDS011;10487;53.320;8.672;2023-07-02T08:15:53;0.60;;;0.40;;
20655;SDS011;10487;53.320;8.672;2023-07-02T08:18:55;0.73;;;0.50;;
20655;SDS011;10487;53.320;8.672;2023-07-02T08:21:56;0.73;;;0.50;;
20655;SDS011;10487;53.320;8.672;2023-07-02T08:24:58;0.77;;;0.43;;
20655;SDS011;10487;53.320;8.672;2023-07-02T08:27:59;0.95;;;0.43;;
20655;SDS011;10487;53.320;8.672;2023-07-02T08:31:01;0.45;;;0.35;;
20655;SDS011;10487;53.320;8.672;2023-07-02T08:34:03;0.38;;;0.30;;
20655;SDS011;10487;53.320;8.672;2023-07-02T08:37:05;0.82;;;0.38;;
20655;SDS011;10487;53.320;8.672;2023-07-02T08:40:15;0.20;;;0.20;;
20655;SDS011;10487;53.320;8.672;2023-07-02T08:43:18;0.30;;;0.28;;
20655;SDS011;10487;53.320;8.672;2023-07-02T08:46:19;1.42;;;0.30;;
20655;SDS011;10487;53.320;8.672;2023-07-02T08:49:21;0.65;;;0.40;;
20655;SDS011;10487;53.320;8.672;2023-07-02T08:52:23;0.32;;;0.30;;
20655;SDS011;10487;53.320;8.672;2023-07-02T08:55:25;0.50;;;0.30;;
20655;SDS011;10487;53.320;8.672;2023-07-02T08:58:30;1.10;;;0.30;;
20655;SDS011;10487;53.320;8.672;2023-07-02T09:01:32;0.35;;;0.30;;
20655;SDS011;10487;53.320;8.672;2023-07-02T09:04:34;0.20;;;0.20;;
20655;SDS011;10487;53.320;8.672;2023-07-02T09:07:45;0.20;;;0.20;;
20655;SDS011;10487;53.320;8.672;2023-07-02T09:10:47;0.20;;;0.20;;
20655;SDS011;10487;53.320;8.672;2023-07-02T09:13:51;0.30;;;0.30;;
20655;SDS011;10487;53.320;8.672;2023-07-02T09:17:02;1.33;;;0.40;;
20655;SDS011;10487;53.320;8.672;2023-07-02T09:20:08;0.32;;;0.30;;
20655;SDS011;10487;53.320;8.672;2023-07-02T09:23:10;0.63;;;0.30;;
20655;SDS011;10487;53.320;8.672;2023-07-02T09:26:19;3.80;;;0.55;;
20655;SDS011;10487;53.320;8.672;2023-07-02T09:29:28;0.30;;;0.22;;
20655;SDS011;10487;53.320;8.672;2023-07-02T09:32:35;0.75;;;0.50;;
20655;SDS011;10487;53.320;8.672;2023-07-02T09:35:37;0.38;;;0.20;;
20655;SDS011;10487;53.320;8.672;2023-07-02T09:38:39;0.75;;;0.40;;
20655;SDS011;10487;53.320;8.672;2023-07-02T09:41:41;0.93;;;0.50;;
20655;SDS011;10487;53.320;8.672;2023-07-02T09:44:46;0.50;;;0.30;;
20655;SDS011;10487;53.320;8.672;2023-07-02T09:47:50;0.30;;;0.30;;
20655;SDS011;10487;53.320;8.672;2023-07-02T09:50:56;0.20;;;0.20;;
20655;SDS011;10487;53.320;8.672;2023-07-02T09:53:59;0.30;;;0.30;;
20655;SDS011;10487;53.320;8.672;2023-07-02T09:57:01;0.40;;;0.28;;
20655;SDS011;10487;53.320;8.672;2023-07-02T10:00:04;0.30;;;0.20;;
20655;SDS011;10487;53.320;8.672;2023-07-02T10:03:08;0.40;;;0.20;;
20655;SDS011;10487;53.320;8.672;2023-07-02T10:06:10;0.15;;;0.15;;
20655;SDS011;10487;53.320;8.672;2023-07-02T10:09:11;0.32;;;0.10;;
20655;SDS011;10487;53.320;8.672;2023-07-02T10:15:25;0.15;;;0.15;;
20655;SDS011;10487;53.320;8.672;2023-07-02T10:18:27;0.22;;;0.20;;
20655;SDS011;10487;53.320;8.672;2023-07-02T10:21:29;0.17;;;0.17;;
20655;SDS011;10487;53.320;8.672;2023-07-02T10:24:31;0.10;;;0.10;;
20655;SDS011;10487;53.320;8.672;2023-07-02T10:27:36;0.10;;;0.10;;
20655;SDS011;10487;53.320;8.672;2023-07-02T10:30:39;0.60;;;0.20;;
20655;SDS011;10487;53.320;8.672;2023-07-02T10:33:43;0.20;;;0.20;;
20655;SDS011;10487;53.320;8.672;2023-07-02T10:36:45;0.10;;;0.10;;
20655;SDS011;10487;53.320;8.672;2023-07-02T10:39:47;0.20;;;0.20;;
20655;SDS011;10487;53.320;8.672;2023-07-02T10:42:49;0.32;;;0.20;;
20655;SDS011;10487;53.320;8.672;2023-07-02T10:45:52;0.43;;;0.30;;
20655;SDS011;10487;53.320;8.672;2023-07-02T10:48:54;0.52;;;0.13;;
20655;SDS011;10487;53.320;8.672;2023-07-02T10:52:00;0.20;;;0.20;;
20655;SDS011;10487;53.320;8.672;2023-07-02T10:55:02;0.65;;;0.30;;
20655;SDS011;10487;53.320;8.672;2023-07-02T10:58:06;0.32;;;0.20;;
20655;SDS011;10487;53.320;8.672;2023-07-02T11:01:09;0.25;;;0.20;;
20655;SDS011;10487;53.320;8.672;2023-07-02T11:04:12;0.57;;;0.30;;
20655;SDS011;10487;53.320;8.672;2023-07-02T11:07:14;0.20;;;0.20;;
20655;SDS011;10487;53.320;8.672;2023-07-02T11:10:23;0.30;;;0.20;;
20655;SDS011;10487;53.320;8.672;2023-07-02T11:13:25;0.20;;;0.20;;
20655;SDS011;10487;53.320;8.672;2023-07-02T11:16:28;0.17;;;0.17;;
20655;SDS011;10487;53.320;8.672;2023-07-02T11:19:31;0.20;;;0.20;;
20655;SDS011;10487;53.320;8.672;2023-07-02T11:22:33;0.17;;;0.17;;
20655;SDS011;10487;53.320;8.672;2023-07-02T11:25:39;0.28;;;0.20;;
20655;SDS011;10487;53.320;8.672;2023-07-02T11:28:49;0.35;;;0.10;;
20655;SDS011;10487;53.320;8.672;2023-07-02T11:31:52;0.10;;;0.10;;
20655;SDS011;10487;53.320;8.672;2023-07-02T11:34:54;0.30;;;0.20;;
20655;SDS011;10487;53.320;8.672;2023-07-02T11:37:56;0.40;;;0.20;;
20655;SDS011;10487;53.320;8.672;2023-07-02T11:40:57;0.20;;;0.20;;
20655;SDS011;10487;53.320;8.672;2023-07-02T11:43:59;0.20;;;0.20;;
20655;SDS011;10487;53.320;8.672;2023-07-02T11:47:01;0.20;;;0.20;;
20655;SDS011;10487;53.320;8.672;2023-07-02T11:50:06;0.55;;;0.20;;
20655;SDS011;10487;53.320;8.672;2023-07-02T11:53:26;0.30;;;0.22;;
20655;SDS011;10487;53.320;8.672;2023-07-02T11:56:27;0.20;;;0.20;;
20655;SDS011;10487;53.320;8.672;2023-07-02T11:59:29;0.10;;;0.10;;
20655;SDS011;10487;53.320;8.672;2023-07-02T12:02:30;0.20;;;0.20;;
20655;SDS011;10487;53.320;8.672;2023-07-02T12:05:32;0.10;;;0.10;;
20655;SDS011;10487;53.320;8.672;2023-07-02T12:08:34;0.20;;;0.20;;
20655;SDS011;10487;53.320;8.672;2023-07-02T12:11:35;0.22;;;0.20;;
20655;SDS011;10487;53.320;8.672;2023-07-02T12:14:37;0.10;;;0.10;;
20655;SDS011;10487;53.320;8.672;2023-07-02T12:17:40;0.73;;;0.40;;
20655;SDS011;10487;53.320;8.672;2023-07-02T12:20:41;0.40;;;0.30;;
20655;SDS011;10487;53.320;8.672;2023-07-02T12:23:43;0.10;;;0.10;;
20655;SDS011;10487;53.320;8.672;2023-07-02T12:26:45;0.22;;;0.20;;
20655;SDS011;10487;53.320;8.672;2023-07-02T12:29:46;0.20;;;0.20;;
20655;SDS011;10487;53.320;8.672;2023-07-02T12:32:49;0.10;;;0.10;;
20655;SDS011;10487;53.320;8.672;2023-07-02T12:35:51;0.57;;;0.20;;
20655;SDS011;10487;53.320;8.672;2023-07-02T12:38:53;0.10;;;0.10;;
20655;SDS011;10487;53.320;8.672;2023-07-02T12:41:54;0.10;;;0.10;;
20655;SDS011;10487;53.320;8.672;2023-07-02T12:44:56;0.10;;;0.10;;
20655;SDS011;10487;53.320;8.672;2023-07-02T12:47:58;0.73;;;0.30;;
20655;SDS011;10487;53.320;8.672;2023-07-02T12:51:00;0.20;;;0.20;;
20655;SDS011;10487;53.320;8.672;2023-07-02T12:54:02;0.20;;;0.20;;
20655;SDS011;10487;53.320;8.672;2023-07-02T12:57:03;0.20;;;0.20;;
20655;SDS011;10487;53.320;8.672;2023-07-02T13:00:05;0.20;;;0.20;;
20655;SDS011;10487;53.320;8.672;2023-07-02T13:03:10;0.20;;;0.20;;
20655;SDS011;10487;53.320;8.672;2023-07-02T13:06:13;0.10;;;0.10;;
20655;SDS011;10487;53.320;8.672;2023-07-02T13:09:16;0.20;;;0.20;;
20655;SDS011;10487;53.320;8.672;2023-07-02T13:12:17;0.20;;;0.15;;
20655;SDS011;10487;53.320;8.672;2023-07-02T13:15:19;0.20;;;0.20;;
20655;SDS011;10487;53.320;8.672;2023-07-02T13:18:21;0.30;;;0.30;;
20655;SDS011;10487;53.320;8.672;2023-07-02T13:21:22;0.38;;;0.20;;
20655;SDS011;10487;53.320;8.672;2023-07-02T13:24:24;0.22;;;0.20;;
20655;SDS011;10487;53.320;8.672;2023-07-02T13:27:26;0.35;;;0.25;;
20655;SDS011;10487;53.320;8.672;2023-07-02T13:30:27;1.95;;;0.30;;
20655;SDS011;10487;53.320;8.672;2023-07-02T13:33:32;0.22;;;0.20;;
20655;SDS011;10487;53.320;8.672;2023-07-02T13:36:34;0.40;;;0.20;;
20655;SDS011;10487;53.320;8.672;2023-07-02T13:39:36;0.20;;;0.20;;
20655;SDS011;10487;53.320;8.672;2023-07-02T13:42:38;0.20;;;0.20;;
20655;SDS011;10487;53.320;8.672;2023-07-02T13:45:40;0.10;;;0.10;;
20655;SDS011;10487;53.320;8.672;2023-07-02T13:48:42;1.00;;;0.20;;
20655;SDS011;10487;53.320;8.672;2023-07-02T13:51:43;0.10;;;0.10;;
20655;SDS011;10487;53.320;8.672;2023-07-02T13:54:45;0.10;;;0.10;;
20655;SDS011;10487;53.320;8.672;2023-07-02T13:57:47;0.17;;;0.17;;
20655;SDS011;10487;53.320;8.672;2023-07-02T14:00:48;0.10;;;0.10;;
20655;SDS011;10487;53.320;8.672;2023-07-02T14:03:50;0.10;;;0.10;;
20655;SDS011;10487;53.320;8.672;2023-07-02T14:06:52;0.30;;;0.20;;
20655;SDS011;10487;53.320;8.672;2023-07-02T14:09:55;0.25;;;0.10;;
20655;SDS011;10487;53.320;8.672;2023-07-02T14:12:57;0.10;;;0.10;;
20655;SDS011;10487;53.320;8.672;2023-07-02T14:15:59;0.10;;;0.10;;
20655;SDS011;10487;53.320;8.672;2023-07-02T14:19:01;0.20;;;0.20;;
20655;SDS011;10487;53.320;8.672;2023-07-02T14:22:03;0.20;;;0.20;;
20655;SDS011;10487;53.320;8.672;2023-07-02T14:25:05;0.20;;;0.20;;
20655;SDS011;10487;53.320;8.672;2023-07-02T14:28:07;0.10;;;0.10;;
20655;SDS011;10487;53.320;8.672;2023-07-02T14:31:09;0.17;;;0.15;;
20655;SDS011;10487;53.320;8.672;2023-07-02T14:34:11;0.10;;;0.10;;
20655;SDS011;10487;53.320;8.672;2023-07-02T14:37:13;0.40;;;0.32;;
20655;SDS011;10487;53.320;8.672;2023-07-02T14:40:14;0.13;;;0.13;;
20655;SDS011;10487;53.320;8.672;2023-07-02T14:43:16;0.30;;;0.20;;
20655;SDS011;10487;53.320;8.672;2023-07-02T14:46:18;0.30;;;0.20;;
20655;SDS011;10487;53.320;8.672;2023-07-02T14:49:20;0.25;;;0.20;;
20655;SDS011;10487;53.320;8.672;2023-07-02T14:52:21;0.13;;;0.10;;
20655;SDS011;10487;53.320;8.672;2023-07-02T14:55:23;0.30;;;0.30;;
20655;SDS011;10487;53.320;8.672;2023-07-02T14:58:25;0.30;;;0.10;;
20655;SDS011;10487;53.320;8.672;2023-07-02T15:01:28;0.10;;;0.10;;
20655;SDS011;10487;53.320;8.672;2023-07-02T15:04:29;0.20;;;0.20;;
20655;SDS011;10487;53.320;8.672;2023-07-02T15:07:31;0.30;;;0.30;;
20655;SDS011;10487;53.320;8.672;2023-07-02T15:10:33;0.20;;;0.20;;
20655;SDS011;10487;53.320;8.672;2023-07-02T15:13:36;0.10;;;0.10;;
20655;SDS011;10487;53.320;8.672;2023-07-02T15:16:38;0.10;;;0.10;;
20655;SDS011;10487;53.320;8.672;2023-07-02T15:19:40;0.20;;;0.20;;
20655;SDS011;10487;53.320;8.672;2023-07-02T15:22:42;0.17;;;0.17;;
20655;SDS011;10487;53.320;8.672;2023-07-02T15:25:43;0.17;;;0.17;;
20655;SDS011;10487;53.320;8.672;2023-07-02T15:28:55;0.10;;;0.10;;
20655;SDS011;10487;53.320;8.672;2023-07-02T15:31:56;0.20;;;0.20;;
20655;SDS011;10487;53.320;8.672;2023-07-02T15:34:58;0.20;;;0.20;;
20655;SDS011;10487;53.320;8.672;2023-07-02T15:37:59;0.35;;;0.20;;
20655;SDS011;10487;53.320;8.672;2023-07-02T15:44:09;0.10;;;0.10;;
20655;SDS011;10487;53.320;8.672;2023-07-02T15:47:10;0.20;;;0.20;;
20655;SDS011;10487;53.320;8.672;2023-07-02T15:50:12;0.10;;;0.10;;
20655;SDS011;10487;53.320;8.672;2023-07-02T15:53:14;0.20;;;0.20;;
20655;SDS011;10487;53.320;8.672;2023-07-02T15:56:16;0.20;;;0.20;;
20655;SDS011;10487;53.320;8.672;2023-07-02T15:59:17;0.40;;;0.30;;
20655;SDS011;10487;53.320;8.672;2023-07-02T16:02:19;0.30;;;0.30;;
20655;SDS011;10487;53.320;8.672;2023-07-02T16:05:24;0.20;;;0.20;;
20655;SDS011;10487;53.320;8.672;2023-07-02T16:08:26;0.17;;;0.17;;
20655;SDS011;10487;53.320;8.672;2023-07-02T16:11:28;0.20;;;0.20;;
20655;SDS011;10487;53.320;8.672;2023-07-02T16:14:32;0.30;;;0.30;;
20655;SDS011;10487;53.320;8.672;2023-07-02T16:17:35;0.10;;;0.10;;
20655;SDS011;10487;53.320;8.672;2023-07-02T16:20:36;0.10;;;0.10;;
20655;SDS011;10487;53.320;8.672;2023-07-02T16:23:38;0.40;;;0.32;;
20655;SDS011;10487;53.320;8.672;2023-07-02T16:26:41;0.20;;;0.20;;
20655;SDS011;10487;53.320;8.672;2023-07-02T16:29:42;0.10;;;0.10;;
20655;SDS011;10487;53.320;8.672;2023-07-02T16:32:46;0.20;;;0.20;;
20655;SDS011;10487;53.320;8.672;2023-07-02T16:35:48;0.10;;;0.10;;
20655;SDS011;10487;53.320;8.672;2023-07-02T16:38:50;0.10;;;0.10;;
20655;SDS011;10487;53.320;8.672;2023-07-02T16:41:52;0.20;;;0.20;;
20655;SDS011;10487;53.320;8.672;2023-07-02T16:44:55;0.20;;;0.20;;
20655;SDS011;10487;53.320;8.672;2023-07-02T16:48:00;0.20;;;0.20;;
20655;SDS011;10487;53.320;8.672;2023-07-02T16:51:04;0.17;;;0.17;;
20655;SDS011;10487;53.320;8.672;2023-07-02T16:54:08;0.20;;;0.20;;
20655;SDS011;10487;53.320;8.672;2023-07-02T16:57:16;0.20;;;0.20;;
20655;SDS011;10487;53.320;8.672;2023-07-02T17:00:18;0.22;;;0.20;;
20655;SDS011;10487;53.320;8.672;2023-07-02T17:03:19;0.35;;;0.25;;
20655;SDS011;10487;53.320;8.672;2023-07-02T17:06:21;0.20;;;0.20;;
20655;SDS011;10487;53.320;8.672;2023-07-02T17:09:27;0.47;;;0.20;;
20655;SDS011;10487;53.320;8.672;2023-07-02T17:12:38;0.17;;;0.17;;
20655;SDS011;10487;53.320;8.672;2023-07-02T17:15:40;0.20;;;0.20;;
20655;SDS011;10487;53.320;8.672;2023-07-02T17:18:41;0.25;;;0.25;;
20655;SDS011;10487;53.320;8.672;2023-07-02T17:21:45;0.38;;;0.32;;
20655;SDS011;10487;53.320;8.672;2023-07-02T17:24:52;0.22;;;0.20;;
20655;SDS011;10487;53.320;8.672;2023-07-02T17:27:54;0.50;;;0.28;;
20655;SDS011;10487;53.320;8.672;2023-07-02T17:30:56;0.20;;;0.20;;
20655;SDS011;10487;53.320;8.672;2023-07-02T17:33:59;0.20;;;0.20;;
20655;SDS011;10487;53.320;8.672;2023-07-02T17:37:02;0.47;;;0.20;;
20655;SDS011;10487;53.320;8.672;2023-07-02T17:40:06;0.10;;;0.10;;
20655;SDS011;10487;53.320;8.672;2023-07-02T17:43:08;0.10;;;0.10;;
20655;SDS011;10487;53.320;8.672;2023-07-02T17:46:11;0.10;;;0.10;;
20655;SDS011;10487;53.320;8.672;2023-07-02T17:49:13;0.22;;;0.20;;
20655;SDS011;10487;53.320;8.672;2023-07-02T17:52:15;0.20;;;0.20;;
20655;SDS011;10487;53.320;8.672;2023-07-02T17:55:19;0.20;;;0.20;;
20655;SDS011;10487;53.320;8.672;2023-07-02T17:58:21;0.40;;;0.20;;
20655;SDS011;10487;53.320;8.672;2023-07-02T18:01:24;0.20;;;0.20;;
20655;SDS011;10487;53.320;8.672;2023-07-02T18:04:26;0.10;;;0.10;;
20655;SDS011;10487;53.320;8.672;2023-07-02T18:07:28;0.22;;;0.22;;
20655;SDS011;10487;53.320;8.672;2023-07-02T18:10:30;0.20;;;0.20;;
20655;SDS011;10487;53.320;8.672;2023-07-02T18:13:31;0.20;;;0.20;;
20655;SDS011;10487;53.320;8.672;2023-07-02T18:16:33;0.15;;;0.15;;
20655;SDS011;10487;53.320;8.672;2023-07-02T18:19:35;0.20;;;0.20;;
20655;SDS011;10487;53.320;8.672;2023-07-02T18:22:37;0.20;;;0.20;;
20655;SDS011;10487;53.320;8.672;2023-07-02T18:25:39;0.10;;;0.10;;